Naples Municipal Airport Naples US
ICAO: KAPF
IATA: APF
Category: Medium
Scheduled Services: No

Elevation: 8 ft
TransAlt. 18000 ft.

Airport Communications:
FORT MYERS APP/DEP:119.75
ATIS:134.225
CLNC DEL:118
CTAF:128.5
GND:121.6
MIAMI RDO:123.6
TWR:128.5

KAPF Zoom In..

If Map Doesn't Load, Click Here

Runways:

(A) RW 05 length 6600 ft width 150 ft
---- / hdg 47

(B) RW 14 length 5000 ft width 100 ft
---- / hdg 137

(C) RW 23 length 6600 ft width 150 ft
---- / hdg 227

(D) RW 32 length 5000 ft width 100 ft
---- / hdg 317

Location; KAPF
Day. 23 / Time. 21.40 Zulu
* Altimeter: 29.93
* Temperature: 25° c. 77°f.
* Wind from: 270° Speed 07 kn.
Dewpoint: 23° c.
Visibility: 8 Statute Miles.
Clouds: Scattered 1600 ft.
Clouds: Broken 7000 ft.
Clouds: Overcast 11000 ft.

KAPF 232140Z 27007KT 8SM TSRA SCT016 BKN070 OVC110 25/23 A2993 RMK AO2 PK WND 23040/2114 RAB01 P0122 T02500228


Wind From 270°
Speed 07 kn.

 
 
jpsmedia.com for Web Design worldairports.se 2018   terms of use